Terminal Aerodrome Forecast
Issued by NWS Sterling, VA

Home | Current Version | Previous Version | Text Only | Print | Product List | Glossary On
Versions: 1 2 3 4 5 6 7 8 9 10 11 12 13 14 15 16 17 18 19 20 21 22
091
FTUS41 KLWX 282341
TAFDCA
TAF
KDCA 282341Z 2900/2924 12006KT P6SM OVC025
     FM290200 12007KT 5SM SHRA OVC015
     FM290600 13005KT P6SM OVC008
     FM291400 26005KT P6SM BKN008
     FM291600 28007KT P6SM BKN035
     FM292300 29005KT P6SM SCT250=

USA.gov is the U.S. government's official web portal to all federal, state and local government web resources and services.